createdAt,value
2019-05-17T00:02:19.083Z,11.10
2019-05-17T00:04:46.867Z,11.10
2019-05-17T00:07:12.102Z,11.20
2019-05-17T00:09:37.611Z,11.20
2019-05-17T00:12:03.116Z,11.10
2019-05-17T00:14:28.609Z,11.20
2019-05-17T00:16:54.027Z,11.40
2019-05-17T00:19:19.517Z,11.40
2019-05-17T00:21:47.326Z,11.30
2019-05-17T00:24:12.332Z,11.30
2019-05-17T00:26:39.783Z,11.10
2019-05-17T00:29:06.777Z,11.10
2019-05-17T00:31:32.472Z,11.20
2019-05-17T00:33:58.358Z,11.20
2019-05-17T00:36:37.647Z,11.10
2019-05-17T00:39:07.458Z,11.00
2019-05-17T00:41:32.606Z,11.10
2019-05-17T00:43:58.101Z,11.00
2019-05-17T00:46:23.610Z,10.90
2019-05-17T00:48:49.107Z,11.10
2019-05-17T00:51:16.542Z,11.10
2019-05-17T00:53:41.892Z,11.10
2019-05-17T00:56:07.391Z,11.00
2019-05-17T00:58:32.901Z,11.10
2019-05-17T01:00:58.712Z,11.20
2019-05-17T01:03:24.220Z,11.00
2019-05-17T01:05:49.710Z,11.00
2019-05-17T01:08:18.952Z,11.00
2019-05-17T01:10:44.512Z,11.10
2019-05-17T01:13:10.215Z,11.00
2019-05-17T01:15:36.944Z,10.70
2019-05-17T01:18:02.734Z,10.60
2019-05-17T01:20:30.303Z,10.70
2019-05-17T01:22:56.701Z,10.80
2019-05-17T01:25:22.362Z,10.90
2019-05-17T01:27:48.093Z,11.00
2019-05-17T01:30:17.263Z,11.00
2019-05-17T01:32:42.301Z,10.90
2019-05-17T01:35:08.547Z,10.80
2019-05-17T01:37:37.019Z,10.70
2019-05-17T01:40:02.789Z,10.70
2019-05-17T01:42:28.831Z,10.80
2019-05-17T01:44:56.626Z,10.90
2019-05-17T01:47:21.981Z,10.90
2019-05-17T01:49:47.468Z,10.90
2019-05-17T01:52:12.967Z,11.00
2019-05-17T01:54:38.478Z,10.80
2019-05-17T01:57:03.993Z,10.60
2019-05-17T01:59:29.707Z,10.60
2019-05-17T02:01:58.597Z,10.70
2019-05-17T02:04:24.068Z,10.70
2019-05-17T02:06:49.582Z,10.60
2019-05-17T02:09:32.212Z,10.50
2019-05-17T02:11:42.269Z,10.50
2019-05-17T02:14:07.735Z,10.60
2019-05-17T02:16:33.230Z,10.50
2019-05-17T02:18:58.735Z,10.80
2019-05-17T02:21:24.236Z,10.80
2019-05-17T02:23:49.610Z,10.70
2019-05-17T02:26:17.333Z,10.70
2019-05-17T02:28:42.512Z,10.70
2019-05-17T02:31:08.155Z,10.40
2019-05-17T02:33:34.484Z,10.50
2019-05-17T02:36:02.604Z,10.60
2019-05-17T02:38:27.140Z,10.60
2019-05-17T02:40:53.776Z,10.40
2019-05-17T02:43:19.299Z,10.20
2019-05-17T02:45:44.756Z,10.40
2019-05-17T02:48:13.147Z,10.50
2019-05-17T02:50:37.674Z,10.60
2019-05-17T02:53:04.386Z,10.40
2019-05-17T02:55:32.455Z,10.40
2019-05-17T02:58:03.050Z,10.30
2019-05-17T03:00:28.107Z,10.30
2019-05-17T03:02:53.860Z,10.40
2019-05-17T03:05:23.314Z,10.40
2019-05-17T03:07:48.085Z,10.20
2019-05-17T03:10:24.027Z,10.30
2019-05-17T03:12:44.554Z,10.40
2019-05-17T03:15:12.610Z,10.60
2019-05-17T03:17:36.092Z,10.50
2019-05-17T03:20:03.936Z,10.40
2019-05-17T03:22:28.663Z,10.40
2019-05-17T03:24:54.076Z,10.30
2019-05-17T03:27:19.526Z,10.40
2019-05-17T03:29:44.969Z,10.50
2019-05-17T03:32:16.705Z,10.30
2019-05-17T03:34:37.957Z,10.20
2019-05-17T03:37:06.589Z,10.30
2019-05-17T03:39:33.297Z,10.40
2019-05-17T03:41:57.979Z,10.40
2019-05-17T03:44:23.948Z,10.30
2019-05-17T03:46:49.492Z,10.40
2019-05-17T03:49:14.941Z,10.50
2019-05-17T03:51:42.624Z,10.40
2019-05-17T03:54:07.466Z,10.30
2019-05-17T03:56:33.212Z,10.30
2019-05-17T03:59:03.403Z,10.30
2019-05-17T04:01:27.037Z,10.20
2019-05-17T04:03:53.120Z,10.20
2019-05-17T04:06:18.675Z,10.40
2019-05-17T04:08:44.159Z,10.60
2019-05-17T04:11:22.367Z,10.70
2019-05-17T04:13:38.824Z,10.50
2019-05-17T04:16:08.960Z,10.40
2019-05-17T04:18:33.611Z,10.40
2019-05-17T04:20:59.252Z,10.50
2019-05-17T04:23:24.723Z,10.50
2019-05-17T04:25:53.095Z,10.50
2019-05-17T04:28:18.286Z,10.50
2019-05-17T04:30:44.364Z,10.60
2019-05-17T04:33:12.797Z,10.50
2019-05-17T04:35:36.935Z,10.60
2019-05-17T04:38:04.397Z,10.50
2019-05-17T04:40:29.532Z,10.40
2019-05-17T04:42:55.003Z,10.50
2019-05-17T04:45:22.992Z,10.60
2019-05-17T04:48:04.471Z,10.70
2019-05-17T04:50:33.261Z,10.50
2019-05-17T04:53:13.554Z,10.50
2019-05-17T04:55:42.848Z,10.40
2019-05-17T04:58:06.886Z,10.50
2019-05-17T05:00:33.992Z,10.60
2019-05-17T05:02:59.495Z,10.60
2019-05-17T05:05:25.021Z,10.50
2019-05-17T05:07:53.200Z,10.50
2019-05-17T05:10:17.698Z,10.40
2019-05-17T05:12:44.160Z,10.30
2019-05-17T05:15:12.188Z,10.40
2019-05-17T05:17:37.407Z,10.50
2019-05-17T05:20:03.171Z,10.60
2019-05-17T05:22:28.576Z,10.60
2019-05-17T05:24:54.033Z,10.60
2019-05-17T05:27:19.462Z,10.60
2019-05-17T05:29:44.913Z,10.70
2019-05-17T05:32:11.822Z,10.70
2019-05-17T05:34:37.810Z,10.60
2019-05-17T05:37:03.585Z,10.60
2019-05-17T05:39:28.983Z,10.60
2019-05-17T05:42:06.388Z,10.60
2019-05-17T05:44:21.884Z,10.60
2019-05-17T05:46:47.422Z,10.50
2019-05-17T05:49:12.863Z,10.50
2019-05-17T05:51:38.335Z,10.60
2019-05-17T05:54:03.795Z,10.50
2019-05-17T05:56:29.188Z,10.50
2019-05-17T05:58:54.658Z,10.60
2019-05-17T06:01:21.936Z,10.70
2019-05-17T06:03:47.233Z,10.70
2019-05-17T06:06:12.927Z,10.60
2019-05-17T06:08:38.373Z,10.60
2019-05-17T06:11:03.804Z,10.60
2019-05-17T06:13:29.255Z,10.60
2019-05-17T06:15:54.702Z,10.70
2019-05-17T06:18:22.478Z,10.80
2019-05-17T06:20:47.318Z,10.80
2019-05-17T06:23:12.839Z,10.80
2019-05-17T06:25:38.131Z,10.90
2019-05-17T06:28:03.539Z,10.90
2019-05-17T06:30:28.998Z,10.90
2019-05-17T06:32:54.479Z,11.00
2019-05-17T06:35:21.758Z,10.90
2019-05-17T06:37:47.379Z,10.90
2019-05-17T06:40:13.424Z,11.00
2019-05-17T06:42:42.520Z,10.90
2019-05-17T06:45:06.869Z,10.90
2019-05-17T06:47:32.873Z,10.90
2019-05-17T06:49:58.502Z,11.00
2019-05-17T06:52:23.854Z,11.10
2019-05-17T06:54:49.439Z,11.10
2019-05-17T06:57:14.905Z,11.20
2019-05-17T06:59:40.361Z,11.30
2019-05-17T07:02:05.800Z,11.30
2019-05-17T07:04:31.240Z,11.10
2019-05-17T07:07:20.738Z,11.20
2019-05-17T07:09:50.546Z,11.20
2019-05-17T07:12:21.342Z,11.30
2019-05-17T07:14:47.379Z,11.20
2019-05-17T07:17:13.114Z,11.20
2019-05-17T07:19:40.051Z,11.30
2019-05-17T07:22:05.933Z,11.20
2019-05-17T07:24:33.411Z,11.10
2019-05-17T07:27:00.046Z,11.20
2019-05-17T07:29:26.118Z,11.20
2019-05-17T07:31:51.663Z,11.20
2019-05-17T07:34:19.840Z,11.20
2019-05-17T07:36:47.368Z,11.20
2019-05-17T07:39:13.308Z,11.20
2019-05-17T07:41:40.082Z,11.20
2019-05-17T07:44:05.910Z,11.30
2019-05-17T07:46:31.927Z,11.40
2019-05-17T07:48:57.216Z,11.30
2019-05-17T07:51:22.688Z,11.40
2019-05-17T07:53:49.510Z,11.40
2019-05-17T07:56:15.047Z,11.40
2019-05-17T07:58:40.578Z,11.30
2019-05-17T08:01:06.088Z,11.40
2019-05-17T08:03:31.571Z,11.40
2019-05-17T08:05:59.786Z,11.50
2019-05-17T08:08:24.330Z,11.60
2019-05-17T08:10:50.925Z,11.60
2019-05-17T08:13:29.107Z,11.70
2019-05-17T08:15:44.429Z,11.50
2019-05-17T08:18:10.755Z,11.60
2019-05-17T08:20:36.692Z,11.60
2019-05-17T08:23:05.070Z,11.60
2019-05-17T08:25:30.497Z,11.70
2019-05-17T08:27:56.333Z,11.90
2019-05-17T08:30:22.333Z,11.80
2019-05-17T08:32:50.403Z,11.70
2019-05-17T08:35:15.256Z,11.60
2019-05-17T08:37:42.233Z,11.60
2019-05-17T08:40:10.620Z,11.80
2019-05-17T08:42:35.536Z,11.70
2019-05-17T08:45:01.428Z,11.80
2019-05-17T08:47:26.923Z,11.80
2019-05-17T08:49:52.365Z,11.70
2019-05-17T08:52:20.015Z,11.70
2019-05-17T08:54:45.684Z,11.70
2019-05-17T08:57:11.162Z,11.80
2019-05-17T08:59:36.814Z,11.70
2019-05-17T09:02:02.263Z,11.70
2019-05-17T09:04:29.735Z,11.70
2019-05-17T09:06:55.319Z,11.70
2019-05-17T09:09:20.769Z,11.80
2019-05-17T09:11:46.248Z,11.80
2019-05-17T09:14:11.686Z,11.80
2019-05-17T09:16:39.925Z,11.80
2019-05-17T09:19:04.594Z,11.80
2019-05-17T09:21:31.744Z,11.80
2019-05-17T09:23:59.560Z,11.70
2019-05-17T09:26:24.461Z,11.70
2019-05-17T09:28:55.219Z,11.90
2019-05-17T09:31:20.682Z,11.90
2019-05-17T09:33:46.152Z,11.80
2019-05-17T09:36:11.595Z,11.70
2019-05-17T09:38:37.104Z,11.80
2019-05-17T09:41:02.558Z,11.90
2019-05-17T09:43:29.507Z,11.80
2019-05-17T09:45:55.029Z,11.80
2019-05-17T09:48:20.480Z,11.90
2019-05-17T09:50:45.926Z,12.00
2019-05-17T09:53:11.300Z,12.00
2019-05-17T09:55:36.729Z,12.00
2019-05-17T09:58:02.188Z,12.00
2019-05-17T10:00:29.681Z,12.10
2019-05-17T10:02:55.261Z,12.10
2019-05-17T10:05:20.637Z,12.10
2019-05-17T10:07:46.245Z,12.00
2019-05-17T10:10:11.888Z,12.00
2019-05-17T10:12:37.252Z,12.20
2019-05-17T10:15:02.787Z,12.10
2019-05-17T10:17:29.412Z,12.20
2019-05-17T10:19:55.184Z,12.20
2019-05-17T10:22:20.658Z,12.10
2019-05-17T10:24:46.107Z,12.10
2019-05-17T10:27:14.489Z,12.10
2019-05-17T10:29:39.485Z,12.10
2019-05-17T10:32:05.208Z,12.10
2019-05-17T10:34:32.740Z,12.20
2019-05-17T10:36:58.028Z,12.10
2019-05-17T10:39:23.395Z,12.10
2019-05-17T10:41:50.072Z,12.20
2019-05-17T10:44:15.925Z,12.20
2019-05-17T10:46:41.373Z,12.20
2019-05-17T10:49:12.961Z,12.30
2019-05-17T10:51:40.254Z,12.30
2019-05-17T10:54:05.578Z,12.30
2019-05-17T10:56:31.019Z,12.30
2019-05-17T10:58:56.403Z,12.40
2019-05-17T11:01:21.867Z,12.20
2019-05-17T11:03:47.296Z,12.30
2019-05-17T11:06:13.015Z,12.40
2019-05-17T11:08:38.437Z,12.40
2019-05-17T11:11:03.880Z,12.40
2019-05-17T11:13:29.239Z,12.30
2019-05-17T11:15:54.701Z,12.30
2019-05-17T11:18:20.171Z,12.30
2019-05-17T11:20:45.648Z,12.10
2019-05-17T11:23:11.112Z,12.20
2019-05-17T11:25:36.577Z,12.20
2019-05-17T11:28:02.248Z,12.10
2019-05-17T11:30:27.701Z,12.10
2019-05-17T11:32:53.096Z,12.00
2019-05-17T11:35:18.700Z,12.00
2019-05-17T11:37:44.143Z,12.00
2019-05-17T11:40:12.720Z,12.00
2019-05-17T11:42:38.231Z,12.10
2019-05-17T11:45:04.616Z,12.10
2019-05-17T11:47:30.070Z,12.10
2019-05-17T11:49:55.510Z,12.20
2019-05-17T11:52:22.165Z,12.30
2019-05-17T11:54:47.589Z,12.30
2019-05-17T11:57:12.906Z,12.30
2019-05-17T11:59:38.346Z,12.30
2019-05-17T12:02:03.816Z,12.40
2019-05-17T12:04:29.263Z,12.40
2019-05-17T12:06:54.707Z,12.40
2019-05-17T12:09:20.090Z,12.50
2019-05-17T12:11:45.813Z,12.50
2019-05-17T12:14:11.458Z,12.40
2019-05-17T12:16:37.540Z,12.50
2019-05-17T12:19:02.845Z,12.60
2019-05-17T12:21:28.598Z,12.50
2019-05-17T12:23:54.139Z,12.50
2019-05-17T12:26:19.639Z,12.50
2019-05-17T12:28:45.169Z,12.40
2019-05-17T12:31:11.167Z,12.40
2019-05-17T12:33:40.948Z,12.40
2019-05-17T12:36:07.523Z,12.60
2019-05-17T12:38:32.999Z,12.60
2019-05-17T12:40:58.474Z,12.60
2019-05-17T12:43:23.839Z,12.60
2019-05-17T12:46:00.083Z,12.60
2019-05-17T12:48:16.455Z,12.70
2019-05-17T12:50:42.159Z,12.60
2019-05-17T12:53:07.608Z,12.60
2019-05-17T12:55:33.080Z,12.50
2019-05-17T12:57:58.824Z,12.60
2019-05-17T13:00:24.719Z,12.60
2019-05-17T13:02:50.103Z,12.60
2019-05-17T13:05:17.591Z,12.60
2019-05-17T13:07:43.035Z,12.60
2019-05-17T13:10:09.665Z,12.50
2019-05-17T13:12:35.103Z,12.40
2019-05-17T13:15:00.730Z,12.50
2019-05-17T13:17:26.167Z,12.60
2019-05-17T13:19:51.608Z,12.50
2019-05-17T13:22:17.354Z,12.60
2019-05-17T13:24:42.836Z,12.60
2019-05-17T13:27:11.417Z,12.70
2019-05-17T13:29:37.499Z,12.70
2019-05-17T13:32:02.993Z,12.60
2019-05-17T13:34:52.983Z,12.60
2019-05-17T13:37:18.579Z,12.70
2019-05-17T13:39:44.828Z,12.50
2019-05-17T13:42:10.347Z,12.40
2019-05-17T13:44:35.792Z,12.50
2019-05-17T13:47:01.245Z,12.60
2019-05-17T13:49:26.651Z,12.60
2019-05-17T13:51:58.234Z,12.40
2019-05-17T13:54:23.685Z,12.40
2019-05-17T13:56:49.156Z,12.30
2019-05-17T13:59:14.647Z,12.60
2019-05-17T14:01:40.081Z,12.70
2019-05-17T14:04:05.574Z,12.80
2019-05-17T14:06:31.013Z,12.80
2019-05-17T14:08:56.418Z,12.80
2019-05-17T14:11:21.954Z,12.70
2019-05-17T14:13:47.427Z,12.70
2019-05-17T14:16:12.926Z,12.60
2019-05-17T14:18:38.423Z,12.60
2019-05-17T14:21:03.868Z,12.70
2019-05-17T14:23:29.384Z,12.50
2019-05-17T14:25:54.843Z,12.60
2019-05-17T14:28:20.414Z,12.70
2019-05-17T14:30:45.865Z,12.70
2019-05-17T14:33:11.923Z,12.70
2019-05-17T14:35:37.379Z,12.90
2019-05-17T14:38:21.111Z,12.80
2019-05-17T14:41:05.885Z,12.80
2019-05-17T14:43:16.102Z,12.70
2019-05-17T14:45:41.825Z,12.90
2019-05-17T14:48:08.315Z,12.80
2019-05-17T14:50:33.784Z,12.80
2019-05-17T14:53:00.611Z,12.80
2019-05-17T14:55:26.109Z,12.70
2019-05-17T14:57:51.613Z,12.70
2019-05-17T15:00:17.335Z,13.00
2019-05-17T15:02:42.789Z,12.90
2019-05-17T15:05:20.710Z,12.90
2019-05-17T15:07:47.244Z,12.90
2019-05-17T15:10:12.824Z,13.00
2019-05-17T15:12:38.542Z,12.90
2019-05-17T15:15:08.081Z,13.00
2019-05-17T15:17:35.101Z,13.10
2019-05-17T15:20:00.824Z,13.10
2019-05-17T15:22:26.411Z,13.10
2019-05-17T15:24:51.923Z,13.00
2019-05-17T15:27:18.741Z,13.10
2019-05-17T15:29:44.401Z,13.10
2019-05-17T15:32:10.036Z,13.10
2019-05-17T15:34:35.573Z,13.10
2019-05-17T15:37:01.322Z,13.20
2019-05-17T15:39:26.801Z,13.10
2019-05-17T15:41:59.441Z,13.20
2019-05-17T15:44:27.058Z,13.30
2019-05-17T15:46:53.569Z,13.30
2019-05-17T15:49:18.983Z,13.20
2019-05-17T15:51:44.375Z,13.20
2019-05-17T15:54:17.178Z,13.10
2019-05-17T15:56:43.090Z,13.00
2019-05-17T15:59:08.803Z,13.10
2019-05-17T16:01:34.458Z,13.10
2019-05-17T16:03:59.981Z,13.10
2019-05-17T16:06:25.349Z,13.00
2019-05-17T16:08:51.061Z,13.00
2019-05-17T16:11:25.433Z,13.10
2019-05-17T16:13:50.923Z,13.20
2019-05-17T16:16:16.362Z,13.20
2019-05-17T16:18:41.934Z,13.20
2019-05-17T16:21:07.385Z,13.30
2019-05-17T16:23:32.822Z,13.40
2019-05-17T16:25:58.379Z,13.40
2019-05-17T16:28:23.941Z,13.30
2019-05-17T16:30:49.396Z,13.40
2019-05-17T16:33:14.864Z,13.30
2019-05-17T16:35:42.477Z,13.40
2019-05-17T16:38:07.961Z,13.40
2019-05-17T16:40:33.668Z,13.20
2019-05-17T16:42:59.511Z,13.30
2019-05-17T16:45:26.001Z,13.40
2019-05-17T16:47:51.798Z,13.40
2019-05-17T16:50:26.305Z,13.40
2019-05-17T16:53:04.948Z,13.50
2019-05-17T16:55:19.702Z,13.40
2019-05-17T16:57:45.352Z,13.50
2019-05-17T17:00:44.276Z,13.60
2019-05-17T17:03:09.790Z,13.60
2019-05-17T17:05:35.642Z,13.60
2019-05-17T17:08:01.106Z,13.70
2019-05-17T17:10:26.578Z,13.60
2019-05-17T17:12:52.379Z,13.50
2019-05-17T17:15:18.044Z,13.60
2019-05-17T17:17:43.589Z,13.60
2019-05-17T17:20:09.545Z,13.60
2019-05-17T17:22:35.033Z,13.60
2019-05-17T17:25:00.551Z,13.60
2019-05-17T17:27:25.972Z,13.70
2019-05-17T17:29:52.046Z,13.70
2019-05-17T17:32:21.632Z,13.70
2019-05-17T17:34:44.971Z,13.80
2019-05-17T17:37:10.419Z,13.80
2019-05-17T17:39:36.438Z,13.80
2019-05-17T17:42:02.695Z,13.90
2019-05-17T17:44:28.222Z,13.80
2019-05-17T17:46:54.027Z,13.90
2019-05-17T17:49:19.483Z,13.90
2019-05-17T17:51:44.876Z,14.00
2019-05-17T17:54:10.325Z,14.00
2019-05-17T17:56:35.768Z,13.90
2019-05-17T17:59:01.296Z,14.00
2019-05-17T18:01:26.792Z,14.00
2019-05-17T18:03:52.244Z,14.00
2019-05-17T18:06:17.722Z,14.00
2019-05-17T18:08:43.718Z,13.90
2019-05-17T18:11:09.195Z,14.00
2019-05-17T18:13:34.577Z,13.90
2019-05-17T18:16:00.156Z,14.00
2019-05-17T18:18:25.597Z,13.90
2019-05-17T18:20:51.227Z,13.90
2019-05-17T18:23:22.541Z,13.90
2019-05-17T18:25:44.448Z,13.90
2019-05-17T18:28:10.911Z,13.80
2019-05-17T18:30:36.660Z,13.90
2019-05-17T18:33:02.195Z,13.90
2019-05-17T18:35:51.890Z,13.90
2019-05-17T18:38:22.317Z,13.90
2019-05-17T18:40:47.828Z,14.00
2019-05-17T18:43:13.419Z,14.00
2019-05-17T18:45:44.247Z,13.90
2019-05-17T18:48:09.647Z,13.90
2019-05-17T18:50:35.763Z,13.90
2019-05-17T18:53:01.346Z,13.90
2019-05-17T18:55:26.935Z,13.90
2019-05-17T18:57:52.540Z,13.90
2019-05-17T19:00:18.837Z,13.90
2019-05-17T19:02:44.379Z,14.00
2019-05-17T19:05:10.137Z,14.00
2019-05-17T19:07:35.610Z,14.10
2019-05-17T19:10:01.072Z,14.00
2019-05-17T19:12:27.028Z,14.00
2019-05-17T19:14:52.479Z,14.00
2019-05-17T19:17:17.966Z,14.00
2019-05-17T19:19:43.406Z,14.10
2019-05-17T19:22:09.256Z,14.10
2019-05-17T19:24:34.728Z,13.90
2019-05-17T19:27:00.460Z,13.80
2019-05-17T19:29:27.032Z,13.80
2019-05-17T19:31:52.755Z,13.90
2019-05-17T19:34:24.416Z,13.80
2019-05-17T19:36:49.975Z,13.80
2019-05-17T19:39:15.382Z,14.00
2019-05-17T19:41:41.105Z,13.90
2019-05-17T19:44:06.879Z,13.90
2019-05-17T19:46:32.851Z,13.90
2019-05-17T19:48:58.342Z,13.90
2019-05-17T19:51:23.790Z,13.90
2019-05-17T19:53:49.550Z,13.90
2019-05-17T19:56:15.027Z,13.90
2019-05-17T19:58:40.471Z,14.00
2019-05-17T20:01:06.288Z,14.00
2019-05-17T20:03:31.699Z,13.80
2019-05-17T20:05:57.091Z,13.80
2019-05-17T20:08:22.534Z,13.70
2019-05-17T20:10:51.596Z,13.70
2019-05-17T20:13:15.452Z,13.80
2019-05-17T20:15:41.405Z,13.70
2019-05-17T20:18:06.866Z,13.70
2019-05-17T20:20:32.414Z,13.70
2019-05-17T20:22:57.953Z,13.70
2019-05-17T20:25:24.913Z,13.70
2019-05-17T20:27:50.381Z,13.70
2019-05-17T20:30:16.855Z,13.70
2019-05-17T20:32:42.619Z,13.70
2019-05-17T20:35:08.653Z,13.70
2019-05-17T20:37:34.143Z,13.70
2019-05-17T20:39:59.976Z,13.70
2019-05-17T20:42:25.423Z,13.70
2019-05-17T20:44:50.908Z,13.60
2019-05-17T20:47:16.430Z,13.70
2019-05-17T20:49:41.920Z,13.70
2019-05-17T20:52:09.686Z,13.70
2019-05-17T20:54:35.859Z,13.70
2019-05-17T20:57:01.915Z,13.60
2019-05-17T20:59:28.240Z,13.60
2019-05-17T21:01:56.478Z,13.50
2019-05-17T21:04:22.645Z,13.60
2019-05-17T21:06:48.306Z,13.50
2019-05-17T21:09:14.346Z,13.50
2019-05-17T21:11:41.075Z,13.50
2019-05-17T21:14:07.994Z,13.60
2019-05-17T21:16:34.308Z,13.50
2019-05-17T21:19:00.473Z,13.50
2019-05-17T21:21:26.802Z,13.50
2019-05-17T21:23:52.543Z,13.50
2019-05-17T21:26:18.237Z,13.50
2019-05-17T21:28:47.092Z,13.50
2019-05-17T21:31:11.541Z,13.50
2019-05-17T21:33:37.958Z,13.50
2019-05-17T21:36:04.379Z,13.50
2019-05-17T21:38:31.246Z,13.50
2019-05-17T21:40:59.936Z,13.60
2019-05-17T21:43:26.478Z,13.50
2019-05-17T21:46:03.242Z,13.50
2019-05-17T21:48:24.391Z,13.50
2019-05-17T21:50:50.824Z,13.50
2019-05-17T21:53:21.832Z,13.40
2019-05-17T21:55:47.636Z,13.40
2019-05-17T21:58:13.442Z,13.40
2019-05-17T22:01:18.094Z,13.40
2019-05-17T22:03:44.009Z,13.50
2019-05-17T22:06:10.152Z,13.40
2019-05-17T22:08:35.755Z,13.30
2019-05-17T22:11:01.974Z,13.30
2019-05-17T22:13:27.487Z,13.30
2019-05-17T22:15:56.278Z,13.30
2019-05-17T22:18:22.433Z,13.40
2019-05-17T22:20:48.019Z,13.30
2019-05-17T22:23:13.567Z,13.30
2019-05-17T22:25:39.176Z,13.30
2019-05-17T22:28:04.780Z,13.30
2019-05-17T22:30:30.326Z,13.30
2019-05-17T22:32:55.911Z,13.30
2019-05-17T22:35:21.459Z,13.30
2019-05-17T22:37:47.097Z,13.20
2019-05-17T22:40:12.816Z,13.20
2019-05-17T22:42:57.209Z,13.20
2019-05-17T22:45:22.735Z,13.10
2019-05-17T22:47:48.294Z,13.10
2019-05-17T22:50:13.941Z,13.20
2019-05-17T22:52:41.522Z,13.10
2019-05-17T22:55:07.277Z,13.10
2019-05-17T22:57:32.889Z,13.10
2019-05-17T22:59:58.455Z,13.00
2019-05-17T23:02:24.514Z,13.10
2019-05-17T23:04:49.997Z,12.90
2019-05-17T23:07:16.641Z,12.90
2019-05-17T23:09:42.106Z,12.90
2019-05-17T23:12:07.477Z,12.90
2019-05-17T23:14:34.104Z,12.90
2019-05-17T23:16:59.772Z,12.90
2019-05-17T23:19:25.525Z,12.90
2019-05-17T23:21:52.099Z,12.90
2019-05-17T23:24:17.599Z,12.90
2019-05-17T23:26:43.536Z,12.90
2019-05-17T23:29:09.371Z,12.80
2019-05-17T23:31:34.915Z,12.80
2019-05-17T23:34:00.808Z,12.70
2019-05-17T23:36:26.991Z,12.70
2019-05-17T23:38:52.387Z,12.80
2019-05-17T23:41:17.829Z,12.70
2019-05-17T23:43:43.688Z,12.70
2019-05-17T23:46:09.586Z,12.80
2019-05-17T23:48:35.685Z,12.80
2019-05-17T23:51:01.894Z,12.80
2019-05-17T23:53:27.776Z,12.80
2019-05-17T23:55:54.403Z,12.80
2019-05-17T23:58:20.137Z,12.80
